sensor_id;sensor_type;location;lat;lon;timestamp;pressure;altitude;pressure_sealevel;temperature;humidity
71666;BME280;59503;53.486;10.196;2022-11-06T00:02:03;101563.91;;;6.32;100.00
71666;BME280;59503;53.486;10.196;2022-11-06T00:04:28;101571.38;;;6.36;100.00
71666;BME280;59503;53.486;10.196;2022-11-06T00:06:54;101577.75;;;6.40;100.00
71666;BME280;59503;53.486;10.196;2022-11-06T00:09:20;101566.81;;;6.45;100.00
71666;BME280;59503;53.486;10.196;2022-11-06T00:11:47;101558.06;;;6.48;100.00
71666;BME280;59503;53.486;10.196;2022-11-06T00:14:13;101562.19;;;6.54;100.00
71666;BME280;59503;53.486;10.196;2022-11-06T00:16:39;101549.50;;;6.54;100.00
71666;BME280;59503;53.486;10.196;2022-11-06T00:19:06;101549.66;;;6.58;100.00
71666;BME280;59503;53.486;10.196;2022-11-06T00:21:32;101555.25;;;6.61;100.00
71666;BME280;59503;53.486;10.196;2022-11-06T00:23:59;101552.22;;;6.63;100.00
71666;BME280;59503;53.486;10.196;2022-11-06T00:26:26;101555.91;;;6.67;100.00
71666;BME280;59503;53.486;10.196;2022-11-06T00:28:52;101555.91;;;6.67;100.00
71666;BME280;59503;53.486;10.196;2022-11-06T00:31:23;101557.63;;;6.71;100.00
71666;BME280;59503;53.486;10.196;2022-11-06T00:33:49;101552.25;;;6.71;100.00
71666;BME280;59503;53.486;10.196;2022-11-06T00:36:17;101553.84;;;6.81;100.00
71666;BME280;59503;53.486;10.196;2022-11-06T00:38:44;101541.44;;;6.80;100.00
71666;BME280;59503;53.486;10.196;2022-11-06T00:41:14;101547.94;;;6.87;100.00
71666;BME280;59503;53.486;10.196;2022-11-06T00:43:40;101550.66;;;6.87;100.00
71666;BME280;59503;53.486;10.196;2022-11-06T00:46:09;101541.28;;;6.85;100.00
71666;BME280;59503;53.486;10.196;2022-11-06T00:48:36;101548.59;;;6.93;100.00
71666;BME280;59503;53.486;10.196;2022-11-06T00:53:32;101533.66;;;6.95;100.00
71666;BME280;59503;53.486;10.196;2022-11-06T00:56:06;101536.81;;;6.97;100.00
71666;BME280;59503;53.486;10.196;2022-11-06T00:58:33;101538.75;;;7.05;100.00
71666;BME280;59503;53.486;10.196;2022-11-06T01:01:21;101548.13;;;7.08;100.00
71666;BME280;59503;53.486;10.196;2022-11-06T01:03:55;101540.19;;;7.03;100.00
71666;BME280;59503;53.486;10.196;2022-11-06T01:06:23;101537.16;;;7.04;100.00
71666;BME280;59503;53.486;10.196;2022-11-06T01:08:50;101544.47;;;7.04;100.00
71666;BME280;59503;53.486;10.196;2022-11-06T01:11:23;101538.44;;;6.98;100.00
71666;BME280;59503;53.486;10.196;2022-11-06T01:13:51;101538.91;;;7.00;100.00
71666;BME280;59503;53.486;10.196;2022-11-06T01:16:17;101523.19;;;6.94;100.00
71666;BME280;59503;53.486;10.196;2022-11-06T01:18:43;101532.06;;;6.94;100.00
71666;BME280;59503;53.486;10.196;2022-11-06T01:21:18;101533.50;;;6.92;100.00
71666;BME280;59503;53.486;10.196;2022-11-06T01:23:44;101529.03;;;6.87;100.00
71666;BME280;59503;53.486;10.196;2022-11-06T01:26:11;101520.47;;;6.85;100.00
71666;BME280;59503;53.486;10.196;2022-11-06T01:28:38;101514.91;;;6.82;100.00
71666;BME280;59503;53.486;10.196;2022-11-06T01:31:09;101527.47;;;6.86;100.00
71666;BME280;59503;53.486;10.196;2022-11-06T01:33:35;101513.28;;;6.81;100.00
71666;BME280;59503;53.486;10.196;2022-11-06T01:36:00;101513.94;;;6.78;100.00
71666;BME280;59503;53.486;10.196;2022-11-06T01:38:26;101506.47;;;6.75;100.00
71666;BME280;59503;53.486;10.196;2022-11-06T01:40:52;101511.25;;;6.78;100.00
71666;BME280;59503;53.486;10.196;2022-11-06T01:43:22;101517.13;;;6.80;100.00
71666;BME280;59503;53.486;10.196;2022-11-06T01:45:52;101510.75;;;6.76;100.00
71666;BME280;59503;53.486;10.196;2022-11-06T01:48:21;101505.84;;;6.78;100.00
71666;BME280;59503;53.486;10.196;2022-11-06T01:50:53;101501.41;;;6.82;100.00
71666;BME280;59503;53.486;10.196;2022-11-06T01:53:19;101502.34;;;6.86;100.00
71666;BME280;59503;53.486;10.196;2022-11-06T01:55:48;101494.06;;;6.91;100.00
71666;BME280;59503;53.486;10.196;2022-11-06T01:58:17;101493.28;;;6.90;100.00
71666;BME280;59503;53.486;10.196;2022-11-06T02:00:45;101490.09;;;6.97;100.00
71666;BME280;59503;53.486;10.196;2022-11-06T02:03:11;101485.47;;;6.97;100.00
71666;BME280;59503;53.486;10.196;2022-11-06T02:05:39;101478.66;;;7.00;100.00
71666;BME280;59503;53.486;10.196;2022-11-06T02:08:07;101482.59;;;7.02;100.00
71666;BME280;59503;53.486;10.196;2022-11-06T02:10:33;101475.28;;;7.11;100.00
71666;BME280;59503;53.486;10.196;2022-11-06T02:13:18;101466.69;;;7.09;100.00
71666;BME280;59503;53.486;10.196;2022-11-06T02:19:28;101482.09;;;7.26;100.00
71666;BME280;59503;53.486;10.196;2022-11-06T02:27:08;101468.22;;;7.44;100.00
71666;BME280;59503;53.486;10.196;2022-11-06T02:29:48;101468.34;;;7.56;100.00
71666;BME280;59503;53.486;10.196;2022-11-06T02:32:24;101457.81;;;7.64;100.00
71666;BME280;59503;53.486;10.196;2022-11-06T02:34:53;101461.31;;;7.64;100.00
71666;BME280;59503;53.486;10.196;2022-11-06T02:37:25;101461.47;;;7.68;100.00
71666;BME280;59503;53.486;10.196;2022-11-06T02:39:54;101456.84;;;7.68;100.00
71666;BME280;59503;53.486;10.196;2022-11-06T02:42:22;101447.63;;;7.69;100.00
71666;BME280;59503;53.486;10.196;2022-11-06T02:44:51;101449.38;;;7.65;100.00
71666;BME280;59503;53.486;10.196;2022-11-06T02:47:20;101432.53;;;7.59;100.00
71666;BME280;59503;53.486;10.196;2022-11-06T02:49:56;101427.41;;;7.67;100.00
71666;BME280;59503;53.486;10.196;2022-11-06T02:52:29;101429.97;;;7.63;100.00
71666;BME280;59503;53.486;10.196;2022-11-06T02:55:18;101431.91;;;7.63;100.00
71666;BME280;59503;53.486;10.196;2022-11-06T02:57:51;101433.78;;;7.62;100.00
71666;BME280;59503;53.486;10.196;2022-11-06T03:00:18;101430.63;;;7.60;100.00
71666;BME280;59503;53.486;10.196;2022-11-06T03:02:50;101427.75;;;7.56;100.00
71666;BME280;59503;53.486;10.196;2022-11-06T03:05:22;101422.50;;;7.60;100.00
71666;BME280;59503;53.486;10.196;2022-11-06T03:08:01;101421.09;;;7.54;100.00
71666;BME280;59503;53.486;10.196;2022-11-06T03:10:38;101430.13;;;7.58;100.00
71666;BME280;59503;53.486;10.196;2022-11-06T03:13:21;101410.63;;;7.52;100.00
71666;BME280;59503;53.486;10.196;2022-11-06T03:16:05;101408.34;;;7.54;100.00
71666;BME280;59503;53.486;10.196;2022-11-06T03:19:01;101399.59;;;7.57;100.00
71666;BME280;59503;53.486;10.196;2022-11-06T03:21:37;101397.34;;;7.59;100.00
71666;BME280;59503;53.486;10.196;2022-11-06T03:24:16;101397.78;;;7.70;100.00
71666;BME280;59503;53.486;10.196;2022-11-06T03:26:47;101396.84;;;7.66;100.00
71666;BME280;59503;53.486;10.196;2022-11-06T03:29:44;101403.84;;;7.67;100.00
71666;BME280;59503;53.486;10.196;2022-11-06T03:32:20;101404.38;;;7.61;100.00
71666;BME280;59503;53.486;10.196;2022-11-06T03:37:25;101408.66;;;7.62;100.00
71666;BME280;59503;53.486;10.196;2022-11-06T03:39:54;101397.50;;;7.63;100.00
71666;BME280;59503;53.486;10.196;2022-11-06T03:42:25;101410.69;;;7.65;100.00
71666;BME280;59503;53.486;10.196;2022-11-06T03:44:57;101410.09;;;7.59;100.00
71666;BME280;59503;53.486;10.196;2022-11-06T03:47:31;101399.63;;;7.49;100.00
71666;BME280;59503;53.486;10.196;2022-11-06T03:50:03;101401.22;;;7.50;100.00
71666;BME280;59503;53.486;10.196;2022-11-06T03:52:37;101396.94;;;7.49;100.00
71666;BME280;59503;53.486;10.196;2022-11-06T03:55:09;101396.59;;;7.50;100.00
71666;BME280;59503;53.486;10.196;2022-11-06T03:57:41;101385.66;;;7.47;100.00
71666;BME280;59503;53.486;10.196;2022-11-06T04:00:09;101386.44;;;7.47;100.00
71666;BME280;59503;53.486;10.196;2022-11-06T04:02:39;101390.53;;;7.53;100.00
71666;BME280;59503;53.486;10.196;2022-11-06T04:05:22;101389.41;;;7.54;100.00
71666;BME280;59503;53.486;10.196;2022-11-06T04:07:51;101385.28;;;7.57;100.00
71666;BME280;59503;53.486;10.196;2022-11-06T04:10:41;101386.09;;;7.57;100.00
71666;BME280;59503;53.486;10.196;2022-11-06T04:13:28;101388.78;;;7.57;100.00
71666;BME280;59503;53.486;10.196;2022-11-06T04:16:14;101387.19;;;7.56;100.00
71666;BME280;59503;53.486;10.196;2022-11-06T04:18:41;101387.03;;;7.53;100.00
71666;BME280;59503;53.486;10.196;2022-11-06T04:24:04;101391.41;;;7.66;100.00
71666;BME280;59503;53.486;10.196;2022-11-06T04:30:12;101400.50;;;7.70;100.00
71666;BME280;59503;53.486;10.196;2022-11-06T04:33:10;101401.16;;;7.67;100.00
71666;BME280;59503;53.486;10.196;2022-11-06T04:36:13;101403.38;;;7.65;100.00
71666;BME280;59503;53.486;10.196;2022-11-06T04:39:04;101402.44;;;7.61;100.00
71666;BME280;59503;53.486;10.196;2022-11-06T04:41:46;101396.09;;;7.57;100.00
71666;BME280;59503;53.486;10.196;2022-11-06T04:44:22;101385.66;;;7.47;100.00
71666;BME280;59503;53.486;10.196;2022-11-06T04:46:56;101386.91;;;7.41;100.00
71666;BME280;59503;53.486;10.196;2022-11-06T04:49:25;101387.72;;;7.41;100.00
71666;BME280;59503;53.486;10.196;2022-11-06T04:51:53;101388.38;;;7.38;100.00
71666;BME280;59503;53.486;10.196;2022-11-06T04:54:19;101386.81;;;7.37;100.00
71666;BME280;59503;53.486;10.196;2022-11-06T04:56:44;101385.38;;;7.31;100.00
71666;BME280;59503;53.486;10.196;2022-11-06T04:59:13;101390.63;;;7.36;100.00
71666;BME280;59503;53.486;10.196;2022-11-06T05:01:39;101375.50;;;7.35;100.00
71666;BME280;59503;53.486;10.196;2022-11-06T05:04:05;101390.13;;;7.34;100.00
71666;BME280;59503;53.486;10.196;2022-11-06T05:06:30;101376.03;;;7.29;100.00
71666;BME280;59503;53.486;10.196;2022-11-06T05:08:56;101377.75;;;7.33;100.00
71666;BME280;59503;53.486;10.196;2022-11-06T05:11:23;101382.34;;;7.33;100.00
71666;BME280;59503;53.486;10.196;2022-11-06T05:13:48;101381.25;;;7.34;100.00
71666;BME280;59503;53.486;10.196;2022-11-06T05:16:14;101378.53;;;7.34;100.00
71666;BME280;59503;53.486;10.196;2022-11-06T05:18:39;101374.84;;;7.38;100.00
71666;BME280;59503;53.486;10.196;2022-11-06T05:21:05;101366.59;;;7.35;100.00
71666;BME280;59503;53.486;10.196;2022-11-06T05:23:49;101368.16;;;7.36;100.00
71666;BME280;59503;53.486;10.196;2022-11-06T05:26:14;101373.59;;;7.36;100.00
71666;BME280;59503;53.486;10.196;2022-11-06T05:28:40;101376.75;;;7.38;100.00
71666;BME280;59503;53.486;10.196;2022-11-06T05:31:05;101369.78;;;7.37;100.00
71666;BME280;59503;53.486;10.196;2022-11-06T05:33:31;101363.09;;;7.34;100.00
71666;BME280;59503;53.486;10.196;2022-11-06T05:36:00;101368.13;;;7.44;100.00
71666;BME280;59503;53.486;10.196;2022-11-06T05:38:26;101365.09;;;7.46;100.00
71666;BME280;59503;53.486;10.196;2022-11-06T05:40:52;101370.81;;;7.53;100.00
71666;BME280;59503;53.486;10.196;2022-11-06T05:43:17;101376.69;;;7.55;100.00
71666;BME280;59503;53.486;10.196;2022-11-06T05:45:43;101387.66;;;7.58;100.00
71666;BME280;59503;53.486;10.196;2022-11-06T05:48:08;101379.34;;;7.64;100.00
71666;BME280;59503;53.486;10.196;2022-11-06T05:50:33;101375.38;;;7.61;100.00
71666;BME280;59503;53.486;10.196;2022-11-06T05:52:59;101379.34;;;7.64;100.00
71666;BME280;59503;53.486;10.196;2022-11-06T05:55:24;101378.56;;;7.63;100.00
71666;BME280;59503;53.486;10.196;2022-11-06T05:57:50;101376.66;;;7.64;100.00
71666;BME280;59503;53.486;10.196;2022-11-06T06:00:16;101372.38;;;7.63;100.00
71666;BME280;59503;53.486;10.196;2022-11-06T06:02:42;101366.16;;;7.62;100.00
71666;BME280;59503;53.486;10.196;2022-11-06T06:05:08;101370.09;;;7.65;100.00
71666;BME280;59503;53.486;10.196;2022-11-06T06:07:33;101362.78;;;7.65;100.00
71666;BME280;59503;53.486;10.196;2022-11-06T06:09:59;101375.06;;;7.63;100.00
71666;BME280;59503;53.486;10.196;2022-11-06T06:12:25;101377.56;;;7.76;100.00
71666;BME280;59503;53.486;10.196;2022-11-06T06:14:51;101377.75;;;7.71;100.00
71666;BME280;59503;53.486;10.196;2022-11-06T06:17:17;101378.19;;;7.73;100.00
71666;BME280;59503;53.486;10.196;2022-11-06T06:19:42;101367.03;;;7.75;100.00
71666;BME280;59503;53.486;10.196;2022-11-06T06:22:08;101374.19;;;7.79;100.00
71666;BME280;59503;53.486;10.196;2022-11-06T06:24:33;101370.16;;;7.85;100.00
71666;BME280;59503;53.486;10.196;2022-11-06T06:26:59;101377.22;;;7.98;100.00
71666;BME280;59503;53.486;10.196;2022-11-06T06:29:25;101361.13;;;8.02;100.00
71666;BME280;59503;53.486;10.196;2022-11-06T06:31:50;101371.94;;;8.02;100.00
71666;BME280;59503;53.486;10.196;2022-11-06T06:34:16;101376.25;;;8.03;100.00
71666;BME280;59503;53.486;10.196;2022-11-06T06:36:41;101370.06;;;8.02;100.00
71666;BME280;59503;53.486;10.196;2022-11-06T06:39:07;101372.44;;;8.04;100.00
71666;BME280;59503;53.486;10.196;2022-11-06T06:41:32;101375.47;;;8.02;100.00
71666;BME280;59503;53.486;10.196;2022-11-06T06:43:58;101371.63;;;8.03;100.00
71666;BME280;59503;53.486;10.196;2022-11-06T06:46:23;101366.34;;;8.07;100.00
71666;BME280;59503;53.486;10.196;2022-11-06T06:48:49;101371.09;;;8.10;100.00
71666;BME280;59503;53.486;10.196;2022-11-06T06:51:15;101373.31;;;8.16;100.00
71666;BME280;59503;53.486;10.196;2022-11-06T06:53:40;101377.31;;;8.10;100.00
71666;BME280;59503;53.486;10.196;2022-11-06T06:56:06;101373.50;;;8.11;100.00
71666;BME280;59503;53.486;10.196;2022-11-06T06:58:31;101375.88;;;8.13;100.00
71666;BME280;59503;53.486;10.196;2022-11-06T07:01:04;101371.69;;;8.15;100.00
71666;BME280;59503;53.486;10.196;2022-11-06T07:03:30;101362.34;;;8.13;100.00
71666;BME280;59503;53.486;10.196;2022-11-06T07:05:57;101368.31;;;8.18;100.00
71666;BME280;59503;53.486;10.196;2022-11-06T07:08:24;101367.56;;;8.18;100.00
71666;BME280;59503;53.486;10.196;2022-11-06T07:10:50;101365.63;;;8.18;100.00
71666;BME280;59503;53.486;10.196;2022-11-06T07:13:15;101375.34;;;8.19;100.00
71666;BME280;59503;53.486;10.196;2022-11-06T07:15:41;101366.06;;;8.29;99.34
71666;BME280;59503;53.486;10.196;2022-11-06T07:18:07;101365.59;;;8.27;99.71
71666;BME280;59503;53.486;10.196;2022-11-06T07:20:33;101368.09;;;8.32;100.00
71666;BME280;59503;53.486;10.196;2022-11-06T07:22:59;101375.13;;;8.33;99.71
71666;BME280;59503;53.486;10.196;2022-11-06T07:25:28;101378.59;;;8.33;99.85
71666;BME280;59503;53.486;10.196;2022-11-06T07:27:54;101376.69;;;8.34;99.00
71666;BME280;59503;53.486;10.196;2022-11-06T07:30:19;101376.81;;;8.37;99.90
71666;BME280;59503;53.486;10.196;2022-11-06T07:32:45;101373.31;;;8.37;99.97
71666;BME280;59503;53.486;10.196;2022-11-06T07:35:10;101377.63;;;8.38;99.79
71666;BME280;59503;53.486;10.196;2022-11-06T07:37:36;101380.81;;;8.40;99.75
71666;BME280;59503;53.486;10.196;2022-11-06T07:40:01;101385.22;;;8.44;99.45
71666;BME280;59503;53.486;10.196;2022-11-06T07:42:27;101370.06;;;8.43;99.10
71666;BME280;59503;53.486;10.196;2022-11-06T07:44:53;101379.59;;;8.49;99.15
71666;BME280;59503;53.486;10.196;2022-11-06T07:47:20;101388.53;;;8.50;97.97
71666;BME280;59503;53.486;10.196;2022-11-06T07:49:46;101390.56;;;8.53;99.15
71666;BME280;59503;53.486;10.196;2022-11-06T07:52:11;101384.47;;;8.56;98.68
71666;BME280;59503;53.486;10.196;2022-11-06T07:54:37;101384.28;;;8.61;97.65
71666;BME280;59503;53.486;10.196;2022-11-06T07:57:02;101381.09;;;8.59;96.99
71666;BME280;59503;53.486;10.196;2022-11-06T07:59:28;101386.78;;;8.66;97.96
71666;BME280;59503;53.486;10.196;2022-11-06T08:01:53;101376.31;;;8.76;96.71
71666;BME280;59503;53.486;10.196;2022-11-06T08:04:19;101378.22;;;8.76;97.05
71666;BME280;59503;53.486;10.196;2022-11-06T08:06:44;101382.44;;;8.86;96.37
71666;BME280;59503;53.486;10.196;2022-11-06T08:09:10;101385.81;;;8.82;95.87
71666;BME280;59503;53.486;10.196;2022-11-06T08:11:35;101377.44;;;8.75;96.54
71666;BME280;59503;53.486;10.196;2022-11-06T08:14:01;101387.41;;;8.84;95.91
71666;BME280;59503;53.486;10.196;2022-11-06T08:16:27;101375.56;;;8.88;95.70
71666;BME280;59503;53.486;10.196;2022-11-06T08:18:52;101357.13;;;8.82;96.13
71666;BME280;59503;53.486;10.196;2022-11-06T08:21:18;101362.81;;;8.89;96.33
71666;BME280;59503;53.486;10.196;2022-11-06T08:23:43;101370.28;;;8.92;96.22
71666;BME280;59503;53.486;10.196;2022-11-06T08:26:09;101362.00;;;8.88;96.18
71666;BME280;59503;53.486;10.196;2022-11-06T08:28:35;101363.16;;;8.99;96.51
71666;BME280;59503;53.486;10.196;2022-11-06T08:31:03;101357.59;;;8.96;95.96
71666;BME280;59503;53.486;10.196;2022-11-06T08:33:28;101357.94;;;8.94;96.26
71666;BME280;59503;53.486;10.196;2022-11-06T08:35:54;101360.56;;;9.03;94.53
71666;BME280;59503;53.486;10.196;2022-11-06T08:38:19;101361.38;;;9.03;94.60
71666;BME280;59503;53.486;10.196;2022-11-06T08:40:45;101354.38;;;9.14;95.44
71666;BME280;59503;53.486;10.196;2022-11-06T08:43:10;101355.22;;;9.39;94.18
71666;BME280;59503;53.486;10.196;2022-11-06T08:45:40;101338.34;;;9.33;93.60
71666;BME280;59503;53.486;10.196;2022-11-06T08:48:07;101342.63;;;9.34;93.58
71666;BME280;59503;53.486;10.196;2022-11-06T08:50:34;101336.88;;;9.36;93.38
71666;BME280;59503;53.486;10.196;2022-11-06T08:53:00;101323.97;;;9.33;92.95
71666;BME280;59503;53.486;10.196;2022-11-06T08:55:33;101327.63;;;9.49;93.77
71666;BME280;59503;53.486;10.196;2022-11-06T08:57:58;101324.22;;;9.52;92.46
71666;BME280;59503;53.486;10.196;2022-11-06T09:00:24;101334.28;;;9.63;93.54
71666;BME280;59503;53.486;10.196;2022-11-06T09:02:56;101319.03;;;9.59;90.84
71666;BME280;59503;53.486;10.196;2022-11-06T09:05:22;101328.84;;;9.75;90.20
71666;BME280;59503;53.486;10.196;2022-11-06T09:07:47;101321.28;;;9.69;91.35
71666;BME280;59503;53.486;10.196;2022-11-06T09:10:13;101325.22;;;9.71;90.50
71666;BME280;59503;53.486;10.196;2022-11-06T09:12:38;101317.88;;;9.72;91.25
71666;BME280;59503;53.486;10.196;2022-11-06T09:15:04;101319.31;;;9.69;91.65
71666;BME280;59503;53.486;10.196;2022-11-06T09:17:30;101317.41;;;9.70;89.79
71666;BME280;59503;53.486;10.196;2022-11-06T09:19:55;101319.31;;;9.69;90.82
71666;BME280;59503;53.486;10.196;2022-11-06T09:22:21;101321.72;;;9.71;92.78
71666;BME280;59503;53.486;10.196;2022-11-06T09:24:46;101311.50;;;9.80;92.79
71666;BME280;59503;53.486;10.196;2022-11-06T09:27:12;101304.63;;;9.70;91.22
71666;BME280;59503;53.486;10.196;2022-11-06T09:29:37;101317.53;;;9.73;89.76
71666;BME280;59503;53.486;10.196;2022-11-06T09:32:08;101313.00;;;9.77;93.24
71666;BME280;59503;53.486;10.196;2022-11-06T09:34:34;101321.03;;;9.86;94.50
71666;BME280;59503;53.486;10.196;2022-11-06T09:37:03;101323.25;;;9.96;92.57
71666;BME280;59503;53.486;10.196;2022-11-06T09:39:28;101327.53;;;9.97;91.91
71666;BME280;59503;53.486;10.196;2022-11-06T09:42:00;101326.09;;;9.99;91.62
71666;BME280;59503;53.486;10.196;2022-11-06T09:44:54;101324.03;;;10.09;93.36
71666;BME280;59503;53.486;10.196;2022-11-06T09:47:26;101332.75;;;10.14;91.99
71666;BME280;59503;53.486;10.196;2022-11-06T09:49:55;101334.97;;;10.24;91.54
71666;BME280;59503;53.486;10.196;2022-11-06T09:52:33;101330.97;;;10.34;91.44
71666;BME280;59503;53.486;10.196;2022-11-06T09:55:04;101318.09;;;10.31;89.01
71666;BME280;59503;53.486;10.196;2022-11-06T09:57:42;101321.56;;;10.43;90.95
71666;BME280;59503;53.486;10.196;2022-11-06T10:00:13;101322.81;;;10.61;88.78
71666;BME280;59503;53.486;10.196;2022-11-06T10:02:47;101324.84;;;10.64;89.25
71666;BME280;59503;53.486;10.196;2022-11-06T10:05:33;101320.72;;;10.70;87.70
71666;BME280;59503;53.486;10.196;2022-11-06T10:08:06;101320.47;;;10.75;88.85
71666;BME280;59503;53.486;10.196;2022-11-06T10:16:39;101307.94;;;10.86;87.90
71666;BME280;59503;53.486;10.196;2022-11-06T10:27:15;101293.22;;;11.18;87.28
71666;BME280;59503;53.486;10.196;2022-11-06T10:29:58;101303.41;;;11.21;87.02
71666;BME280;59503;53.486;10.196;2022-11-06T10:35:02;101291.81;;;11.24;84.71
71666;BME280;59503;53.486;10.196;2022-11-06T10:37:39;101282.94;;;11.27;84.67
71666;BME280;59503;53.486;10.196;2022-11-06T10:40:16;101282.38;;;11.38;84.85
71666;BME280;59503;53.486;10.196;2022-11-06T10:42:45;101274.22;;;11.38;84.71
71666;BME280;59503;53.486;10.196;2022-11-06T10:45:16;101261.75;;;11.37;84.74
71666;BME280;59503;53.486;10.196;2022-11-06T10:47:47;101260.34;;;11.43;85.45
71666;BME280;59503;53.486;10.196;2022-11-06T10:50:15;101273.03;;;11.54;83.35
71666;BME280;59503;53.486;10.196;2022-11-06T10:55:42;101271.75;;;11.64;83.37
71666;BME280;59503;53.486;10.196;2022-11-06T10:58:17;101273.91;;;11.74;84.93
71666;BME280;59503;53.486;10.196;2022-11-06T11:00:44;101270.88;;;11.94;84.33
71666;BME280;59503;53.486;10.196;2022-11-06T11:03:29;101262.72;;;11.98;83.63
71666;BME280;59503;53.486;10.196;2022-11-06T11:05:56;101253.00;;;12.16;83.01
71666;BME280;59503;53.486;10.196;2022-11-06T11:08:33;101255.88;;;12.23;83.55
71666;BME280;59503;53.486;10.196;2022-11-06T11:11:25;101246.16;;;12.44;83.12
71666;BME280;59503;53.486;10.196;2022-11-06T11:14:12;101242.47;;;12.56;81.32
71666;BME280;59503;53.486;10.196;2022-11-06T11:16:40;101233.31;;;12.68;80.43
71666;BME280;59503;53.486;10.196;2022-11-06T11:19:38;101222.22;;;12.57;79.51
71666;BME280;59503;53.486;10.196;2022-11-06T11:25:02;101202.16;;;12.46;80.14
71666;BME280;59503;53.486;10.196;2022-11-06T11:27:29;101211.78;;;12.40;81.45
71666;BME280;59503;53.486;10.196;2022-11-06T11:29:56;101212.66;;;12.25;82.79
71666;BME280;59503;53.486;10.196;2022-11-06T11:32:22;101197.56;;;12.08;81.82
71666;BME280;59503;53.486;10.196;2022-11-06T11:34:53;101193.19;;;12.04;82.05
71666;BME280;59503;53.486;10.196;2022-11-06T11:39:53;101205.81;;;12.12;82.95
71666;BME280;59503;53.486;10.196;2022-11-06T11:42:29;101198.44;;;12.12;83.16
71666;BME280;59503;53.486;10.196;2022-11-06T11:47:34;101198.44;;;12.12;82.57
71666;BME280;59503;53.486;10.196;2022-11-06T11:53:03;101181.66;;;11.91;81.82
71666;BME280;59503;53.486;10.196;2022-11-06T11:55:36;101189.06;;;11.91;83.02
71666;BME280;59503;53.486;10.196;2022-11-06T11:58:02;101183.03;;;12.01;81.85
71666;BME280;59503;53.486;10.196;2022-11-06T12:00:28;101193.41;;;12.14;82.82
71666;BME280;59503;53.486;10.196;2022-11-06T12:02:58;101200.34;;;12.31;82.45
71666;BME280;59503;53.486;10.196;2022-11-06T12:05:35;101201.00;;;12.47;80.99
71666;BME280;59503;53.486;10.196;2022-11-06T12:08:02;101194.63;;;12.62;80.66
71666;BME280;59503;53.486;10.196;2022-11-06T12:10:38;101193.91;;;12.65;80.26
71666;BME280;59503;53.486;10.196;2022-11-06T12:13:23;101185.25;;;12.60;81.54
71666;BME280;59503;53.486;10.196;2022-11-06T12:15:54;101186.63;;;12.50;80.32
71666;BME280;59503;53.486;10.196;2022-11-06T12:18:28;101186.59;;;12.46;82.25
71666;BME280;59503;53.486;10.196;2022-11-06T12:21:23;101181.16;;;12.46;81.65
71666;BME280;59503;53.486;10.196;2022-11-06T12:23:58;101177.13;;;12.40;80.19
71666;BME280;59503;53.486;10.196;2022-11-06T12:28:58;101160.03;;;12.43;80.28
71666;BME280;59503;53.486;10.196;2022-11-06T12:33:55;101160.56;;;12.30;81.90
71666;BME280;59503;53.486;10.196;2022-11-06T12:36:24;101147.16;;;12.18;82.36
71666;BME280;59503;53.486;10.196;2022-11-06T12:38:56;101147.44;;;12.13;83.00
71666;BME280;59503;53.486;10.196;2022-11-06T12:41:28;101142.22;;;12.04;82.81
71666;BME280;59503;53.486;10.196;2022-11-06T12:43:56;101142.84;;;11.98;82.99
71666;BME280;59503;53.486;10.196;2022-11-06T12:56:53;101137.66;;;11.70;84.23
71666;BME280;59503;53.486;10.196;2022-11-06T13:11:45;101112.19;;;11.63;85.35
71666;BME280;59503;53.486;10.196;2022-11-06T13:14:26;101110.50;;;11.74;83.93
71666;BME280;59503;53.486;10.196;2022-11-06T13:17:21;101107.06;;;11.77;84.11
71666;BME280;59503;53.486;10.196;2022-11-06T13:23:05;101101.03;;;11.87;83.37
71666;BME280;59503;53.486;10.196;2022-11-06T13:25:44;101090.78;;;11.80;84.02
71666;BME280;59503;53.486;10.196;2022-11-06T13:30:41;101086.72;;;11.71;85.51
71666;BME280;59503;53.486;10.196;2022-11-06T13:33:16;101078.41;;;11.64;85.18
71666;BME280;59503;53.486;10.196;2022-11-06T13:35:45;101090.16;;;11.68;84.53
71666;BME280;59503;53.486;10.196;2022-11-06T13:38:15;101087.56;;;11.75;84.33
71666;BME280;59503;53.486;10.196;2022-11-06T13:40:43;101080.13;;;11.72;83.79
71666;BME280;59503;53.486;10.196;2022-11-06T13:43:14;101074.66;;;11.72;84.17
71666;BME280;59503;53.486;10.196;2022-11-06T13:45:50;101078.97;;;11.73;84.48
71666;BME280;59503;53.486;10.196;2022-11-06T13:48:28;101069.09;;;11.65;83.36
71666;BME280;59503;53.486;10.196;2022-11-06T13:51:02;101063.28;;;11.66;84.30
71666;BME280;59503;53.486;10.196;2022-11-06T13:54:02;101059.91;;;11.54;85.43
71666;BME280;59503;53.486;10.196;2022-11-06T13:59:50;101065.72;;;11.33;85.00
71666;BME280;59503;53.486;10.196;2022-11-06T14:05:39;101062.13;;;11.10;85.18
71666;BME280;59503;53.486;10.196;2022-11-06T14:08:15;101058.03;;;11.00;85.31
71666;BME280;59503;53.486;10.196;2022-11-06T14:10:52;101044.59;;;10.88;85.69
71666;BME280;59503;53.486;10.196;2022-11-06T14:13:25;101038.91;;;10.78;87.49
71666;BME280;59503;53.486;10.196;2022-11-06T14:16:27;101048.75;;;10.67;88.14
71666;BME280;59503;53.486;10.196;2022-11-06T14:21:42;101033.22;;;10.48;90.09
71666;BME280;59503;53.486;10.196;2022-11-06T14:27:04;101038.97;;;10.47;90.05
71666;BME280;59503;53.486;10.196;2022-11-06T14:32:10;101027.69;;;10.45;90.80
71666;BME280;59503;53.486;10.196;2022-11-06T14:34:38;101021.38;;;10.41;90.38
71666;BME280;59503;53.486;10.196;2022-11-06T14:40:11;100997.25;;;10.39;90.07
71666;BME280;59503;53.486;10.196;2022-11-06T14:42:40;101004.78;;;10.46;89.94